sensor_id;sensor_type;location;lat;lon;timestamp;temperature;humidity
27506;DHT22;14939;43.596;1.320;2024-01-06T00:00:30;7.00;99.90
27506;DHT22;14939;43.596;1.320;2024-01-06T00:02:56;7.00;99.90
27506;DHT22;14939;43.596;1.320;2024-01-06T00:05:22;7.00;99.90
27506;DHT22;14939;43.596;1.320;2024-01-06T00:07:47;7.00;99.90
27506;DHT22;14939;43.596;1.320;2024-01-06T00:10:13;7.00;99.90
27506;DHT22;14939;43.596;1.320;2024-01-06T00:12:38;7.00;99.90
27506;DHT22;14939;43.596;1.320;2024-01-06T00:15:04;7.00;99.90
27506;DHT22;14939;43.596;1.320;2024-01-06T00:17:30;7.00;99.90
27506;DHT22;14939;43.596;1.320;2024-01-06T00:19:57;7.00;99.90
27506;DHT22;14939;43.596;1.320;2024-01-06T00:22:23;7.00;99.90
27506;DHT22;14939;43.596;1.320;2024-01-06T00:24:48;6.90;99.90
27506;DHT22;14939;43.596;1.320;2024-01-06T00:27:14;6.90;99.90
27506;DHT22;14939;43.596;1.320;2024-01-06T00:29:41;6.90;99.90
27506;DHT22;14939;43.596;1.320;2024-01-06T00:32:07;6.90;99.90
27506;DHT22;14939;43.596;1.320;2024-01-06T00:34:32;7.00;99.90
27506;DHT22;14939;43.596;1.320;2024-01-06T00:36:58;7.00;99.90
27506;DHT22;14939;43.596;1.320;2024-01-06T00:39:23;6.90;99.90
27506;DHT22;14939;43.596;1.320;2024-01-06T00:41:49;7.00;99.90
27506;DHT22;14939;43.596;1.320;2024-01-06T00:44:15;7.00;99.90
27506;DHT22;14939;43.596;1.320;2024-01-06T00:46:41;7.00;99.90
27506;DHT22;14939;43.596;1.320;2024-01-06T00:49:07;7.00;99.90
27506;DHT22;14939;43.596;1.320;2024-01-06T00:51:32;7.00;99.90
27506;DHT22;14939;43.596;1.320;2024-01-06T00:53:58;7.00;99.90
27506;DHT22;14939;43.596;1.320;2024-01-06T00:56:24;7.00;99.90
27506;DHT22;14939;43.596;1.320;2024-01-06T00:58:49;7.00;99.90
27506;DHT22;14939;43.596;1.320;2024-01-06T01:01:15;7.00;99.90
27506;DHT22;14939;43.596;1.320;2024-01-06T01:03:41;7.00;99.90
27506;DHT22;14939;43.596;1.320;2024-01-06T01:06:06;6.90;99.90
27506;DHT22;14939;43.596;1.320;2024-01-06T01:08:32;6.80;99.90
27506;DHT22;14939;43.596;1.320;2024-01-06T01:10:58;6.90;99.90
27506;DHT22;14939;43.596;1.320;2024-01-06T01:13:25;6.90;99.90
27506;DHT22;14939;43.596;1.320;2024-01-06T01:15:51;6.90;99.90
27506;DHT22;14939;43.596;1.320;2024-01-06T01:18:16;6.90;99.90
27506;DHT22;14939;43.596;1.320;2024-01-06T01:20:42;6.80;99.90
27506;DHT22;14939;43.596;1.320;2024-01-06T01:23:08;6.90;99.90
27506;DHT22;14939;43.596;1.320;2024-01-06T01:25:33;6.80;99.90
27506;DHT22;14939;43.596;1.320;2024-01-06T01:27:59;6.70;99.90
27506;DHT22;14939;43.596;1.320;2024-01-06T01:30:25;6.70;99.90
27506;DHT22;14939;43.596;1.320;2024-01-06T01:32:51;6.70;99.90
27506;DHT22;14939;43.596;1.320;2024-01-06T01:35:16;6.70;99.90
27506;DHT22;14939;43.596;1.320;2024-01-06T01:37:42;6.70;99.90
27506;DHT22;14939;43.596;1.320;2024-01-06T01:40:08;6.60;99.90
27506;DHT22;14939;43.596;1.320;2024-01-06T01:42:34;6.60;99.90
27506;DHT22;14939;43.596;1.320;2024-01-06T01:45:00;6.50;99.90
27506;DHT22;14939;43.596;1.320;2024-01-06T01:47:26;6.50;99.90
27506;DHT22;14939;43.596;1.320;2024-01-06T01:49:54;6.40;99.90
27506;DHT22;14939;43.596;1.320;2024-01-06T01:52:20;6.40;99.90
27506;DHT22;14939;43.596;1.320;2024-01-06T01:54:46;6.50;99.90
27506;DHT22;14939;43.596;1.320;2024-01-06T01:57:13;6.50;99.90
27506;DHT22;14939;43.596;1.320;2024-01-06T01:59:39;6.60;99.90
27506;DHT22;14939;43.596;1.320;2024-01-06T02:02:05;6.60;99.90
27506;DHT22;14939;43.596;1.320;2024-01-06T02:04:31;6.50;99.90
27506;DHT22;14939;43.596;1.320;2024-01-06T02:06:57;6.50;99.90
27506;DHT22;14939;43.596;1.320;2024-01-06T02:09:23;6.40;99.90
27506;DHT22;14939;43.596;1.320;2024-01-06T02:11:52;6.30;99.90
27506;DHT22;14939;43.596;1.320;2024-01-06T02:14:18;6.30;99.90
27506;DHT22;14939;43.596;1.320;2024-01-06T02:16:44;6.20;99.90
27506;DHT22;14939;43.596;1.320;2024-01-06T02:19:11;6.20;99.90
27506;DHT22;14939;43.596;1.320;2024-01-06T02:21:42;6.20;99.90
27506;DHT22;14939;43.596;1.320;2024-01-06T02:24:07;6.30;99.90
27506;DHT22;14939;43.596;1.320;2024-01-06T02:26:33;6.30;99.90
27506;DHT22;14939;43.596;1.320;2024-01-06T02:28:59;6.20;99.90
27506;DHT22;14939;43.596;1.320;2024-01-06T02:31:24;6.10;99.90
27506;DHT22;14939;43.596;1.320;2024-01-06T02:33:50;6.10;99.90
27506;DHT22;14939;43.596;1.320;2024-01-06T02:36:16;6.10;99.90
27506;DHT22;14939;43.596;1.320;2024-01-06T02:38:41;6.10;99.90
27506;DHT22;14939;43.596;1.320;2024-01-06T02:41:07;6.00;99.90
27506;DHT22;14939;43.596;1.320;2024-01-06T02:43:32;6.00;99.90
27506;DHT22;14939;43.596;1.320;2024-01-06T02:45:58;6.00;99.90
27506;DHT22;14939;43.596;1.320;2024-01-06T02:48:24;6.00;99.90
27506;DHT22;14939;43.596;1.320;2024-01-06T02:50:49;6.00;99.90
27506;DHT22;14939;43.596;1.320;2024-01-06T02:53:15;6.10;99.90
27506;DHT22;14939;43.596;1.320;2024-01-06T02:55:41;6.20;99.90
27506;DHT22;14939;43.596;1.320;2024-01-06T02:58:06;6.20;99.90
27506;DHT22;14939;43.596;1.320;2024-01-06T03:00:32;6.30;99.90
27506;DHT22;14939;43.596;1.320;2024-01-06T03:02:58;6.30;99.90
27506;DHT22;14939;43.596;1.320;2024-01-06T03:05:23;6.30;99.90
27506;DHT22;14939;43.596;1.320;2024-01-06T03:07:49;6.30;99.90
27506;DHT22;14939;43.596;1.320;2024-01-06T03:10:15;6.30;99.90
27506;DHT22;14939;43.596;1.320;2024-01-06T03:12:40;6.30;99.90
27506;DHT22;14939;43.596;1.320;2024-01-06T03:15:06;6.30;99.90
27506;DHT22;14939;43.596;1.320;2024-01-06T03:17:32;6.30;99.90
27506;DHT22;14939;43.596;1.320;2024-01-06T03:19:57;6.30;99.90
27506;DHT22;14939;43.596;1.320;2024-01-06T03:22:23;6.30;99.90
27506;DHT22;14939;43.596;1.320;2024-01-06T03:24:49;6.30;99.90
27506;DHT22;14939;43.596;1.320;2024-01-06T03:27:14;6.20;99.90
27506;DHT22;14939;43.596;1.320;2024-01-06T03:29:40;6.20;99.90
27506;DHT22;14939;43.596;1.320;2024-01-06T03:32:06;6.20;99.90
27506;DHT22;14939;43.596;1.320;2024-01-06T03:34:32;6.30;99.90
27506;DHT22;14939;43.596;1.320;2024-01-06T03:36:57;6.20;99.90
27506;DHT22;14939;43.596;1.320;2024-01-06T03:39:23;6.20;99.90
27506;DHT22;14939;43.596;1.320;2024-01-06T03:41:49;6.20;99.90
27506;DHT22;14939;43.596;1.320;2024-01-06T03:44:14;6.20;99.90
27506;DHT22;14939;43.596;1.320;2024-01-06T03:46:40;6.10;99.90
27506;DHT22;14939;43.596;1.320;2024-01-06T03:49:06;6.10;99.90
27506;DHT22;14939;43.596;1.320;2024-01-06T03:51:31;6.10;99.90
27506;DHT22;14939;43.596;1.320;2024-01-06T03:53:57;6.10;99.90
27506;DHT22;14939;43.596;1.320;2024-01-06T03:56:23;6.10;99.90
27506;DHT22;14939;43.596;1.320;2024-01-06T03:58:48;6.10;99.90
27506;DHT22;14939;43.596;1.320;2024-01-06T04:01:14;6.00;99.90
27506;DHT22;14939;43.596;1.320;2024-01-06T04:03:40;6.00;99.90
27506;DHT22;14939;43.596;1.320;2024-01-06T04:06:06;6.00;99.90
27506;DHT22;14939;43.596;1.320;2024-01-06T04:08:31;6.00;99.90
27506;DHT22;14939;43.596;1.320;2024-01-06T04:10:57;5.90;99.90
27506;DHT22;14939;43.596;1.320;2024-01-06T04:13:23;5.90;99.90
27506;DHT22;14939;43.596;1.320;2024-01-06T04:15:50;5.80;99.90
27506;DHT22;14939;43.596;1.320;2024-01-06T04:18:16;5.80;99.90
27506;DHT22;14939;43.596;1.320;2024-01-06T04:20:41;5.80;99.90
27506;DHT22;14939;43.596;1.320;2024-01-06T04:23:07;5.70;99.90
27506;DHT22;14939;43.596;1.320;2024-01-06T04:25:33;5.70;99.90
27506;DHT22;14939;43.596;1.320;2024-01-06T04:27:58;5.70;99.90
27506;DHT22;14939;43.596;1.320;2024-01-06T04:30:24;5.70;99.90
27506;DHT22;14939;43.596;1.320;2024-01-06T04:32:51;5.70;99.90
27506;DHT22;14939;43.596;1.320;2024-01-06T04:35:20;5.70;99.90
27506;DHT22;14939;43.596;1.320;2024-01-06T04:37:46;5.60;99.90
27506;DHT22;14939;43.596;1.320;2024-01-06T04:40:12;5.60;99.90
27506;DHT22;14939;43.596;1.320;2024-01-06T04:42:38;5.60;99.90
27506;DHT22;14939;43.596;1.320;2024-01-06T04:45:04;5.60;99.90
27506;DHT22;14939;43.596;1.320;2024-01-06T04:47:30;5.60;99.90
27506;DHT22;14939;43.596;1.320;2024-01-06T04:49:56;5.60;99.90
27506;DHT22;14939;43.596;1.320;2024-01-06T04:52:22;5.60;99.90
27506;DHT22;14939;43.596;1.320;2024-01-06T04:54:48;5.60;99.90
27506;DHT22;14939;43.596;1.320;2024-01-06T04:57:14;5.60;99.90
27506;DHT22;14939;43.596;1.320;2024-01-06T04:59:40;5.60;99.90
27506;DHT22;14939;43.596;1.320;2024-01-06T05:02:06;5.60;99.90
27506;DHT22;14939;43.596;1.320;2024-01-06T05:04:32;5.60;99.90
27506;DHT22;14939;43.596;1.320;2024-01-06T05:06:58;5.60;99.90
27506;DHT22;14939;43.596;1.320;2024-01-06T05:09:25;5.60;99.90
27506;DHT22;14939;43.596;1.320;2024-01-06T05:11:51;5.60;99.90
27506;DHT22;14939;43.596;1.320;2024-01-06T05:14:16;5.60;99.90
27506;DHT22;14939;43.596;1.320;2024-01-06T05:16:42;5.60;99.90
27506;DHT22;14939;43.596;1.320;2024-01-06T05:19:08;5.60;99.90
27506;DHT22;14939;43.596;1.320;2024-01-06T05:21:34;5.60;99.90
27506;DHT22;14939;43.596;1.320;2024-01-06T05:24:00;5.60;99.90
27506;DHT22;14939;43.596;1.320;2024-01-06T05:26:26;5.70;99.90
27506;DHT22;14939;43.596;1.320;2024-01-06T05:28:52;5.60;99.90
27506;DHT22;14939;43.596;1.320;2024-01-06T05:31:18;5.60;99.90
27506;DHT22;14939;43.596;1.320;2024-01-06T05:33:44;5.60;99.90
27506;DHT22;14939;43.596;1.320;2024-01-06T05:36:09;5.60;99.90
27506;DHT22;14939;43.596;1.320;2024-01-06T05:38:38;5.60;99.90
27506;DHT22;14939;43.596;1.320;2024-01-06T05:41:04;5.60;99.90
27506;DHT22;14939;43.596;1.320;2024-01-06T05:43:29;5.60;99.90
27506;DHT22;14939;43.596;1.320;2024-01-06T05:45:55;5.60;99.90
27506;DHT22;14939;43.596;1.320;2024-01-06T05:48:20;5.60;99.90
27506;DHT22;14939;43.596;1.320;2024-01-06T05:50:46;5.60;99.90
27506;DHT22;14939;43.596;1.320;2024-01-06T05:53:12;5.70;99.90
27506;DHT22;14939;43.596;1.320;2024-01-06T05:55:39;5.70;99.90
27506;DHT22;14939;43.596;1.320;2024-01-06T05:58:05;5.70;99.90
27506;DHT22;14939;43.596;1.320;2024-01-06T06:00:30;5.60;99.90
27506;DHT22;14939;43.596;1.320;2024-01-06T06:02:59;5.70;99.90
27506;DHT22;14939;43.596;1.320;2024-01-06T06:05:25;5.70;99.90
27506;DHT22;14939;43.596;1.320;2024-01-06T06:07:51;5.70;99.90
27506;DHT22;14939;43.596;1.320;2024-01-06T06:10:17;5.80;99.90
27506;DHT22;14939;43.596;1.320;2024-01-06T06:12:46;5.80;99.90
27506;DHT22;14939;43.596;1.320;2024-01-06T06:15:14;5.80;99.90
27506;DHT22;14939;43.596;1.320;2024-01-06T06:17:39;5.80;99.90
27506;DHT22;14939;43.596;1.320;2024-01-06T06:20:05;5.80;99.90
27506;DHT22;14939;43.596;1.320;2024-01-06T06:22:34;5.80;99.90
27506;DHT22;14939;43.596;1.320;2024-01-06T06:25:00;5.90;99.90
27506;DHT22;14939;43.596;1.320;2024-01-06T06:27:26;5.80;99.90
27506;DHT22;14939;43.596;1.320;2024-01-06T06:29:52;5.80;99.90
27506;DHT22;14939;43.596;1.320;2024-01-06T06:32:18;5.80;99.90
27506;DHT22;14939;43.596;1.320;2024-01-06T06:34:43;5.80;99.90
27506;DHT22;14939;43.596;1.320;2024-01-06T06:37:09;5.80;99.90
27506;DHT22;14939;43.596;1.320;2024-01-06T06:39:35;5.90;99.90
27506;DHT22;14939;43.596;1.320;2024-01-06T06:42:01;5.90;99.90
27506;DHT22;14939;43.596;1.320;2024-01-06T06:44:27;5.90;99.90
27506;DHT22;14939;43.596;1.320;2024-01-06T06:46:53;5.90;99.90
27506;DHT22;14939;43.596;1.320;2024-01-06T06:49:19;5.90;99.90
27506;DHT22;14939;43.596;1.320;2024-01-06T06:51:44;5.90;99.90
27506;DHT22;14939;43.596;1.320;2024-01-06T06:54:17;5.90;99.90
27506;DHT22;14939;43.596;1.320;2024-01-06T06:56:42;5.90;99.90
27506;DHT22;14939;43.596;1.320;2024-01-06T06:59:08;5.90;99.90
27506;DHT22;14939;43.596;1.320;2024-01-06T07:01:34;5.90;99.90
27506;DHT22;14939;43.596;1.320;2024-01-06T07:04:01;5.80;99.90
27506;DHT22;14939;43.596;1.320;2024-01-06T07:06:27;5.80;99.90
27506;DHT22;14939;43.596;1.320;2024-01-06T07:08:54;5.80;99.90
27506;DHT22;14939;43.596;1.320;2024-01-06T07:11:20;5.80;99.90
27506;DHT22;14939;43.596;1.320;2024-01-06T07:13:45;5.80;99.90
27506;DHT22;14939;43.596;1.320;2024-01-06T07:16:11;5.80;99.90
27506;DHT22;14939;43.596;1.320;2024-01-06T07:18:37;5.80;99.90
27506;DHT22;14939;43.596;1.320;2024-01-06T07:21:05;5.80;99.90
27506;DHT22;14939;43.596;1.320;2024-01-06T07:23:32;5.80;99.90
27506;DHT22;14939;43.596;1.320;2024-01-06T07:25:58;5.80;99.90
27506;DHT22;14939;43.596;1.320;2024-01-06T07:28:24;5.80;99.90
27506;DHT22;14939;43.596;1.320;2024-01-06T07:30:50;5.80;99.90
27506;DHT22;14939;43.596;1.320;2024-01-06T07:33:15;5.80;99.90
27506;DHT22;14939;43.596;1.320;2024-01-06T07:35:41;5.80;99.90
27506;DHT22;14939;43.596;1.320;2024-01-06T07:38:09;5.90;99.90
27506;DHT22;14939;43.596;1.320;2024-01-06T07:40:36;5.90;99.90
27506;DHT22;14939;43.596;1.320;2024-01-06T07:43:01;5.90;99.90
27506;DHT22;14939;43.596;1.320;2024-01-06T07:45:27;5.90;99.90
27506;DHT22;14939;43.596;1.320;2024-01-06T07:47:53;5.90;99.90
27506;DHT22;14939;43.596;1.320;2024-01-06T07:50:18;5.90;99.90
27506;DHT22;14939;43.596;1.320;2024-01-06T07:52:44;6.00;99.90
27506;DHT22;14939;43.596;1.320;2024-01-06T07:55:10;6.00;99.90
27506;DHT22;14939;43.596;1.320;2024-01-06T07:57:35;6.00;99.90
27506;DHT22;14939;43.596;1.320;2024-01-06T08:00:01;6.00;99.90
27506;DHT22;14939;43.596;1.320;2024-01-06T08:02:26;6.00;99.90
27506;DHT22;14939;43.596;1.320;2024-01-06T08:04:52;6.10;99.90
27506;DHT22;14939;43.596;1.320;2024-01-06T08:07:19;6.10;99.90
27506;DHT22;14939;43.596;1.320;2024-01-06T08:09:45;6.10;99.90
27506;DHT22;14939;43.596;1.320;2024-01-06T08:12:10;6.10;99.90
27506;DHT22;14939;43.596;1.320;2024-01-06T08:14:37;6.10;99.90
27506;DHT22;14939;43.596;1.320;2024-01-06T08:17:02;6.20;99.90
27506;DHT22;14939;43.596;1.320;2024-01-06T08:19:29;6.20;99.90
27506;DHT22;14939;43.596;1.320;2024-01-06T08:21:56;6.20;99.90
27506;DHT22;14939;43.596;1.320;2024-01-06T08:24:21;6.20;99.90
27506;DHT22;14939;43.596;1.320;2024-01-06T08:26:47;6.30;99.90
27506;DHT22;14939;43.596;1.320;2024-01-06T08:29:13;6.30;99.90
27506;DHT22;14939;43.596;1.320;2024-01-06T08:31:40;6.30;99.90
27506;DHT22;14939;43.596;1.320;2024-01-06T08:34:05;6.40;99.90
27506;DHT22;14939;43.596;1.320;2024-01-06T08:36:33;6.50;99.90
27506;DHT22;14939;43.596;1.320;2024-01-06T08:38:59;6.50;99.90
27506;DHT22;14939;43.596;1.320;2024-01-06T08:41:25;6.50;99.90
27506;DHT22;14939;43.596;1.320;2024-01-06T08:43:50;6.50;99.90
27506;DHT22;14939;43.596;1.320;2024-01-06T08:46:16;6.60;99.90
27506;DHT22;14939;43.596;1.320;2024-01-06T08:48:42;6.60;99.90
27506;DHT22;14939;43.596;1.320;2024-01-06T08:51:08;6.50;99.90
27506;DHT22;14939;43.596;1.320;2024-01-06T08:53:34;6.50;99.90
27506;DHT22;14939;43.596;1.320;2024-01-06T08:56:00;6.50;99.90
27506;DHT22;14939;43.596;1.320;2024-01-06T08:58:25;6.60;99.90
27506;DHT22;14939;43.596;1.320;2024-01-06T09:00:51;6.60;99.90
27506;DHT22;14939;43.596;1.320;2024-01-06T09:03:18;6.60;99.90
27506;DHT22;14939;43.596;1.320;2024-01-06T09:05:51;6.70;99.90
27506;DHT22;14939;43.596;1.320;2024-01-06T09:08:17;6.70;99.90
27506;DHT22;14939;43.596;1.320;2024-01-06T09:10:42;6.80;99.90
27506;DHT22;14939;43.596;1.320;2024-01-06T09:13:08;6.80;99.90
27506;DHT22;14939;43.596;1.320;2024-01-06T09:15:34;6.90;99.90
27506;DHT22;14939;43.596;1.320;2024-01-06T09:18:00;6.80;99.90
27506;DHT22;14939;43.596;1.320;2024-01-06T09:20:25;6.70;99.90
27506;DHT22;14939;43.596;1.320;2024-01-06T09:22:52;6.80;99.90
27506;DHT22;14939;43.596;1.320;2024-01-06T09:25:18;6.90;99.90
27506;DHT22;14939;43.596;1.320;2024-01-06T09:27:44;7.00;99.90
27506;DHT22;14939;43.596;1.320;2024-01-06T09:30:10;7.00;99.90
27506;DHT22;14939;43.596;1.320;2024-01-06T09:32:36;7.00;99.90
27506;DHT22;14939;43.596;1.320;2024-01-06T09:35:02;6.90;99.90
27506;DHT22;14939;43.596;1.320;2024-01-06T09:37:29;7.00;99.90
27506;DHT22;14939;43.596;1.320;2024-01-06T09:39:54;7.10;99.90
27506;DHT22;14939;43.596;1.320;2024-01-06T09:42:20;7.30;99.90
27506;DHT22;14939;43.596;1.320;2024-01-06T09:44:46;7.50;99.90
27506;DHT22;14939;43.596;1.320;2024-01-06T09:47:12;7.50;99.90
27506;DHT22;14939;43.596;1.320;2024-01-06T09:49:38;7.30;99.90
27506;DHT22;14939;43.596;1.320;2024-01-06T09:52:13;7.30;99.90
27506;DHT22;14939;43.596;1.320;2024-01-06T09:54:49;7.20;99.90
27506;DHT22;14939;43.596;1.320;2024-01-06T09:57:16;7.20;99.90
27506;DHT22;14939;43.596;1.320;2024-01-06T09:59:44;7.10;99.90
27506;DHT22;14939;43.596;1.320;2024-01-06T10:02:14;7.00;99.90
27506;DHT22;14939;43.596;1.320;2024-01-06T10:04:40;7.00;99.90
27506;DHT22;14939;43.596;1.320;2024-01-06T10:07:06;7.00;99.90
27506;DHT22;14939;43.596;1.320;2024-01-06T10:09:32;7.00;99.90
27506;DHT22;14939;43.596;1.320;2024-01-06T10:11:57;7.00;99.90
27506;DHT22;14939;43.596;1.320;2024-01-06T10:14:25;7.00;99.90
27506;DHT22;14939;43.596;1.320;2024-01-06T10:16:54;6.90;99.90
27506;DHT22;14939;43.596;1.320;2024-01-06T10:19:20;7.00;99.90
27506;DHT22;14939;43.596;1.320;2024-01-06T10:21:46;7.10;99.90
27506;DHT22;14939;43.596;1.320;2024-01-06T10:24:12;7.20;99.90
27506;DHT22;14939;43.596;1.320;2024-01-06T10:26:37;7.20;99.90
27506;DHT22;14939;43.596;1.320;2024-01-06T10:29:04;7.40;99.90
27506;DHT22;14939;43.596;1.320;2024-01-06T10:31:30;7.40;99.90
27506;DHT22;14939;43.596;1.320;2024-01-06T10:33:56;7.50;99.90
27506;DHT22;14939;43.596;1.320;2024-01-06T10:36:25;7.60;99.90
27506;DHT22;14939;43.596;1.320;2024-01-06T10:38:52;7.60;99.90
27506;DHT22;14939;43.596;1.320;2024-01-06T10:41:19;7.60;99.90
27506;DHT22;14939;43.596;1.320;2024-01-06T10:43:47;7.70;99.90
27506;DHT22;14939;43.596;1.320;2024-01-06T10:46:14;7.60;99.90
27506;DHT22;14939;43.596;1.320;2024-01-06T10:48:41;7.50;99.90
27506;DHT22;14939;43.596;1.320;2024-01-06T10:51:12;7.50;99.90
27506;DHT22;14939;43.596;1.320;2024-01-06T10:53:40;7.50;99.90
27506;DHT22;14939;43.596;1.320;2024-01-06T10:56:07;7.50;99.90
27506;DHT22;14939;43.596;1.320;2024-01-06T10:58:47;7.50;99.90
27506;DHT22;14939;43.596;1.320;2024-01-06T11:01:19;7.60;99.90
27506;DHT22;14939;43.596;1.320;2024-01-06T11:03:45;7.50;99.90
27506;DHT22;14939;43.596;1.320;2024-01-06T11:06:12;7.50;99.90
27506;DHT22;14939;43.596;1.320;2024-01-06T11:11:30;7.30;99.90
27506;DHT22;14939;43.596;1.320;2024-01-06T11:14:27;7.30;99.90
27506;DHT22;14939;43.596;1.320;2024-01-06T11:16:58;7.30;99.90
27506;DHT22;14939;43.596;1.320;2024-01-06T11:24:57;7.50;99.90
27506;DHT22;14939;43.596;1.320;2024-01-06T11:27:28;7.50;99.90
27506;DHT22;14939;43.596;1.320;2024-01-06T11:29:59;7.40;99.90
27506;DHT22;14939;43.596;1.320;2024-01-06T11:32:28;7.40;99.90
27506;DHT22;14939;43.596;1.320;2024-01-06T11:34:55;7.30;99.90
27506;DHT22;14939;43.596;1.320;2024-01-06T11:40:08;7.50;99.90
27506;DHT22;14939;43.596;1.320;2024-01-06T11:42:34;7.60;99.90
27506;DHT22;14939;43.596;1.320;2024-01-06T11:45:04;7.80;99.90
27506;DHT22;14939;43.596;1.320;2024-01-06T11:47:34;7.80;99.90
27506;DHT22;14939;43.596;1.320;2024-01-06T11:50:00;7.80;99.90
27506;DHT22;14939;43.596;1.320;2024-01-06T11:52:33;7.70;99.90
27506;DHT22;14939;43.596;1.320;2024-01-06T11:54:59;7.70;99.90
27506;DHT22;14939;43.596;1.320;2024-01-06T11:57:28;7.80;99.90
27506;DHT22;14939;43.596;1.320;2024-01-06T11:59:54;7.80;99.90
27506;DHT22;14939;43.596;1.320;2024-01-06T12:02:20;7.70;99.90
27506;DHT22;14939;43.596;1.320;2024-01-06T12:04:52;7.60;99.90
27506;DHT22;14939;43.596;1.320;2024-01-06T12:07:19;7.50;99.90
27506;DHT22;14939;43.596;1.320;2024-01-06T12:10:05;7.70;99.90
27506;DHT22;14939;43.596;1.320;2024-01-06T12:12:33;7.70;99.90
27506;DHT22;14939;43.596;1.320;2024-01-06T12:14:58;7.80;99.90
27506;DHT22;14939;43.596;1.320;2024-01-06T12:17:29;7.90;99.90
27506;DHT22;14939;43.596;1.320;2024-01-06T12:19:55;8.00;99.90
27506;DHT22;14939;43.596;1.320;2024-01-06T12:22:20;8.00;99.90
27506;DHT22;14939;43.596;1.320;2024-01-06T12:24:49;8.00;99.90
27506;DHT22;14939;43.596;1.320;2024-01-06T12:27:16;8.10;99.90
27506;DHT22;14939;43.596;1.320;2024-01-06T12:29:42;8.30;99.90
27506;DHT22;14939;43.596;1.320;2024-01-06T12:32:09;8.20;99.90
27506;DHT22;14939;43.596;1.320;2024-01-06T12:34:35;8.10;99.90
27506;DHT22;14939;43.596;1.320;2024-01-06T12:37:02;8.20;99.90
27506;DHT22;14939;43.596;1.320;2024-01-06T12:39:28;8.20;99.90
27506;DHT22;14939;43.596;1.320;2024-01-06T12:41:55;8.10;99.90
27506;DHT22;14939;43.596;1.320;2024-01-06T12:44:21;8.10;99.90
27506;DHT22;14939;43.596;1.320;2024-01-06T12:46:47;8.20;99.90
27506;DHT22;14939;43.596;1.320;2024-01-06T12:49:13;8.40;99.90
27506;DHT22;14939;43.596;1.320;2024-01-06T12:51:39;8.20;99.90
27506;DHT22;14939;43.596;1.320;2024-01-06T12:54:04;8.20;99.90
27506;DHT22;14939;43.596;1.320;2024-01-06T12:56:31;8.30;99.90
27506;DHT22;14939;43.596;1.320;2024-01-06T12:58:56;8.30;99.90
27506;DHT22;14939;43.596;1.320;2024-01-06T13:01:22;8.30;99.90
27506;DHT22;14939;43.596;1.320;2024-01-06T13:03:48;8.20;99.90
27506;DHT22;14939;43.596;1.320;2024-01-06T13:06:14;8.30;99.90
27506;DHT22;14939;43.596;1.320;2024-01-06T13:08:41;8.30;99.90
27506;DHT22;14939;43.596;1.320;2024-01-06T13:11:08;8.30;99.90
27506;DHT22;14939;43.596;1.320;2024-01-06T13:13:34;8.20;99.90
27506;DHT22;14939;43.596;1.320;2024-01-06T13:16:00;8.10;99.90
27506;DHT22;14939;43.596;1.320;2024-01-06T13:18:27;7.90;99.90
27506;DHT22;14939;43.596;1.320;2024-01-06T13:20:53;7.90;99.90
27506;DHT22;14939;43.596;1.320;2024-01-06T13:23:19;7.80;99.90
27506;DHT22;14939;43.596;1.320;2024-01-06T13:25:45;7.80;99.90
27506;DHT22;14939;43.596;1.320;2024-01-06T13:28:10;7.80;99.90
27506;DHT22;14939;43.596;1.320;2024-01-06T13:30:37;7.80;99.90
27506;DHT22;14939;43.596;1.320;2024-01-06T13:33:04;7.80;99.90
27506;DHT22;14939;43.596;1.320;2024-01-06T13:35:30;7.80;99.90
27506;DHT22;14939;43.596;1.320;2024-01-06T13:37:57;7.80;99.90
27506;DHT22;14939;43.596;1.320;2024-01-06T13:40:23;7.90;99.90
27506;DHT22;14939;43.596;1.320;2024-01-06T13:42:50;8.10;99.90
27506;DHT22;14939;43.596;1.320;2024-01-06T13:45:19;8.10;99.90
27506;DHT22;14939;43.596;1.320;2024-01-06T13:47:45;8.10;99.90
27506;DHT22;14939;43.596;1.320;2024-01-06T13:50:16;8.20;99.90
27506;DHT22;14939;43.596;1.320;2024-01-06T13:52:43;8.30;99.90
27506;DHT22;14939;43.596;1.320;2024-01-06T13:55:09;8.30;99.90
27506;DHT22;14939;43.596;1.320;2024-01-06T13:57:36;8.40;99.90
27506;DHT22;14939;43.596;1.320;2024-01-06T14:00:08;8.40;99.90
27506;DHT22;14939;43.596;1.320;2024-01-06T14:02:35;8.50;99.90
27506;DHT22;14939;43.596;1.320;2024-01-06T14:05:00;8.50;99.90
27506;DHT22;14939;43.596;1.320;2024-01-06T14:07:26;8.40;99.90
27506;DHT22;14939;43.596;1.320;2024-01-06T14:09:52;8.30;99.90
27506;DHT22;14939;43.596;1.320;2024-01-06T14:12:18;8.40;99.90
27506;DHT22;14939;43.596;1.320;2024-01-06T14:14:44;8.40;99.90
27506;DHT22;14939;43.596;1.320;2024-01-06T14:17:11;8.40;99.90
27506;DHT22;14939;43.596;1.320;2024-01-06T14:19:36;8.30;99.90
27506;DHT22;14939;43.596;1.320;2024-01-06T14:22:02;8.30;99.90
27506;DHT22;14939;43.596;1.320;2024-01-06T14:24:30;8.20;99.90
27506;DHT22;14939;43.596;1.320;2024-01-06T14:26:56;8.30;99.90
27506;DHT22;14939;43.596;1.320;2024-01-06T14:29:22;8.20;99.90
27506;DHT22;14939;43.596;1.320;2024-01-06T14:31:48;8.20;99.90
27506;DHT22;14939;43.596;1.320;2024-01-06T14:34:14;8.20;99.90
27506;DHT22;14939;43.596;1.320;2024-01-06T14:36:40;8.20;99.90
27506;DHT22;14939;43.596;1.320;2024-01-06T14:39:13;8.20;99.90
27506;DHT22;14939;43.596;1.320;2024-01-06T14:41:39;8.20;99.90
27506;DHT22;14939;43.596;1.320;2024-01-06T14:44:05;8.20;99.90
27506;DHT22;14939;43.596;1.320;2024-01-06T14:46:30;8.20;99.90
27506;DHT22;14939;43.596;1.320;2024-01-06T14:48:57;8.20;99.90
27506;DHT22;14939;43.596;1.320;2024-01-06T14:51:22;8.20;99.90
27506;DHT22;14939;43.596;1.320;2024-01-06T14:53:48;8.20;99.90
27506;DHT22;14939;43.596;1.320;2024-01-06T14:56:14;8.20;99.90
27506;DHT22;14939;43.596;1.320;2024-01-06T14:58:39;8.20;99.90
27506;DHT22;14939;43.596;1.320;2024-01-06T15:01:05;8.20;99.90
27506;DHT22;14939;43.596;1.320;2024-01-06T15:03:31;8.10;99.90
27506;DHT22;14939;43.596;1.320;2024-01-06T15:05:57;8.10;99.90
27506;DHT22;14939;43.596;1.320;2024-01-06T15:08:23;8.10;99.90
27506;DHT22;14939;43.596;1.320;2024-01-06T15:10:49;8.10;99.90
27506;DHT22;14939;43.596;1.320;2024-01-06T15:13:15;8.00;99.90
27506;DHT22;14939;43.596;1.320;2024-01-06T15:15:41;8.10;99.90
27506;DHT22;14939;43.596;1.320;2024-01-06T15:18:06;8.00;99.90
27506;DHT22;14939;43.596;1.320;2024-01-06T15:20:34;8.00;99.90
27506;DHT22;14939;43.596;1.320;2024-01-06T15:22:59;8.00;99.90
27506;DHT22;14939;43.596;1.320;2024-01-06T15:25:25;8.00;99.90
27506;DHT22;14939;43.596;1.320;2024-01-06T15:27:50;8.00;99.90
27506;DHT22;14939;43.596;1.320;2024-01-06T15:30:16;7.90;99.90
27506;DHT22;14939;43.596;1.320;2024-01-06T15:32:43;7.80;99.90
27506;DHT22;14939;43.596;1.320;2024-01-06T15:35:09;7.70;99.90
27506;DHT22;14939;43.596;1.320;2024-01-06T15:37:35;7.60;99.90
27506;DHT22;14939;43.596;1.320;2024-01-06T15:40:02;7.50;99.90
27506;DHT22;14939;43.596;1.320;2024-01-06T15:42:27;7.40;99.90
27506;DHT22;14939;43.596;1.320;2024-01-06T15:44:54;7.40;99.90
27506;DHT22;14939;43.596;1.320;2024-01-06T15:47:20;7.40;99.90
27506;DHT22;14939;43.596;1.320;2024-01-06T15:49:45;7.40;99.90